Time;durP1;ratioP1;P1;durP2;ratioP2;P2;SDS_P1;SDS_P2;PMS_P1;PMS_P2;Temp;Humidity;BMP_temperature;BMP_pressure;BME280_temperature;BME280_humidity;BME280_pressure;Samples;Min_cycle;Max_cycle;Signal;HPM_P1;HPM_P2
2022/09/01 00:00:20;;;;;;;;;;;;;;;;;;5136549;27;19926;-90
2022/09/01 00:02:45;;;;;;;;;;;;;;;;;;5136373;27;19915;-90
2022/09/01 00:05:11;;;;;;;;;;;;;;;;;;5118223;27;19994;-90
2022/09/01 00:07:37;;;;;;;;;;;;;;;;;;5136792;27;20309;-90
2022/09/01 00:10:04;;;;;;;;;;;;;;;;;;5118201;27;19970;-90
2022/09/01 00:12:29;;;;;;;;;;;;;;;;;;5118008;27;20004;-90
2022/09/01 00:14:54;;;;;;;;;;;;;;;;;;5117957;27;20269;-89
2022/09/01 00:17:20;;;;;;;;;;;;;;;;;;5136445;27;19961;-90
2022/09/01 00:19:45;;;;;;;;;;;;;;;;;;5117977;27;19922;-90
2022/09/01 00:22:11;;;;;;;;;;;;;;;;;;5136308;27;19922;-88
2022/09/01 00:24:37;;;;;;;;;;;;;;;;;;5118265;27;19922;-89
2022/09/01 00:27:02;;;;;;;;;;;;;;;;;;5136195;27;19916;-89
2022/09/01 00:29:27;;;;;;;;;;;;;;;;;;5101162;27;19927;-89
2022/09/01 00:31:53;;;;;;;;;;;;;;;;;;5100884;27;19958;-90
2022/09/01 00:34:18;;;;;;;;;;;;;;;;;;5117651;27;19919;-90
2022/09/01 00:36:44;;;;;;;;;;;;;;;;;;5117877;27;19937;-91
2022/09/01 00:39:09;;;;;;;;;;;;;;;;;;5136371;27;19915;-91
2022/09/01 00:41:37;;;;;;;;;;;;;;;;;;5135625;27;19923;-90
2022/09/01 00:44:06;;;;;;;;;;;;;;;;;;5117954;27;20412;-90
2022/09/01 00:46:33;;;;;;;;;;;;;;;;;;5117423;27;19980;-90
2022/09/01 00:49:11;;;;;;;;;;;;;;;;;;5117403;27;19911;-90
2022/09/01 00:51:37;;;;;;;;;;;;;;;;;;5100699;27;19919;-90
2022/09/01 00:54:02;;;;;;;;;;;;;;;;;;5124048;27;19945;-84
2022/09/01 00:56:28;;;;;;;;;;;;;;;;;;5124320;28;19914;-87
2022/09/01 00:58:54;;;;;;;;;;;;;;;;;;5159428;27;19920;-88
2022/09/01 01:01:19;;;;;;;;;;;;;;;;;;5159402;27;19915;-87
2022/09/01 01:03:45;;;;;;;;;;;;;;;;;;5124711;28;19911;-87
2022/09/01 01:06:12;;;;;;;;;;;;;;;;;;5141829;27;19986;-86
2022/09/01 01:08:39;;;;;;;;;;;;;;;;;;5139839;27;19915;-88
2022/09/01 01:11:08;;;;;;;;;;;;;;;;;;5138143;27;19939;-88
2022/09/01 01:13:47;;;;;;;;;;;;;;;;;;5139822;27;19903;-88
2022/09/01 01:16:14;;;;;;;;;;;;;;;;;;5117459;28;19972;-90
2022/09/01 01:18:40;;;;;;;;;;;;;;;;;;5116887;28;20006;-89
2022/09/01 01:24:17;;;;;;;;;;;;;;;;;;5120111;28;19922;-90
2022/09/01 01:26:42;;;;;;;;;;;;;;;;;;5124483;28;19916;-90
2022/09/01 01:29:08;;;;;;;;;;;;;;;;;;5117046;28;19922;-89
2022/09/01 01:31:34;;;;;;;;;;;;;;;;;;5135240;28;20302;-89
2022/09/01 01:34:00;;;;;;;;;;;;;;;;;;5117233;28;19915;-89
2022/09/01 01:36:31;;;;;;;;;;;;;;;;;;5117641;28;20264;-88
2022/09/01 01:39:01;;;;;;;;;;;;;;;;;;5117295;28;19920;-89
2022/09/01 01:41:28;;;;;;;;;;;;;;;;;;5117726;28;19916;-89
2022/09/01 01:43:55;;;;;;;;;;;;;;;;;;5100224;28;19922;-89
2022/09/01 01:46:21;;;;;;;;;;;;;;;;;;5100116;28;19987;-89
2022/09/01 01:48:47;;;;;;;;;;;;;;;;;;5099937;28;19927;-90
2022/09/01 01:51:13;;;;;;;;;;;;;;;;;;5099958;28;20333;-89
2022/09/01 01:53:38;;;;;;;;;;;;;;;;;;5099307;28;19923;-90
2022/09/01 01:56:05;;;;;;;;;;;;;;;;;;5100096;28;19922;-90
2022/09/01 01:58:31;;;;;;;;;;;;;;;;;;5100478;28;19922;-88
2022/09/01 02:00:57;;;;;;;;;;;;;;;;;;5116781;28;19923;-90
2022/09/01 02:03:24;;;;;;;;;;;;;;;;;;5100151;28;19915;-89
2022/09/01 02:05:51;;;;;;;;;;;;;;;;;;5100156;28;20007;-88
2022/09/01 02:08:20;;;;;;;;;;;;;;;;;;5116603;28;19915;-89
2022/09/01 02:10:46;;;;;;;;;;;;;;;;;;5100508;28;19916;-88
2022/09/01 02:13:16;;;;;;;;;;;;;;;;;;5099862;28;19923;-89
2022/09/01 02:15:44;;;;;;;;;;;;;;;;;;5116537;28;19923;-90
2022/09/01 02:18:27;;;;;;;;;;;;;;;;;;5135339;28;20332;-89
2022/09/01 02:20:52;;;;;;;;;;;;;;;;;;5134861;28;19972;-89
2022/09/01 02:23:22;;;;;;;;;;;;;;;;;;5116219;28;19919;-90
2022/09/01 02:25:47;;;;;;;;;;;;;;;;;;5119432;27;20026;-90
2022/09/01 02:28:14;;;;;;;;;;;;;;;;;;5103383;27;20432;-89
2022/09/01 02:30:44;;;;;;;;;;;;;;;;;;5103828;27;20249;-88
2022/09/01 02:33:10;;;;;;;;;;;;;;;;;;5120080;27;20002;-89
2022/09/01 02:35:36;;;;;;;;;;;;;;;;;;5120090;27;19915;-89
2022/09/01 02:38:05;;;;;;;;;;;;;;;;;;5103311;27;19922;-88
2022/09/01 02:40:31;;;;;;;;;;;;;;;;;;5120652;27;19915;-89
2022/09/01 02:42:58;;;;;;;;;;;;;;;;;;5138300;27;19951;-90
2022/09/01 02:45:24;;;;;;;;;;;;;;;;;;5103528;27;19919;-89
2022/09/01 02:47:50;;;;;;;;;;;;;;;;;;5119763;27;19916;-89
2022/09/01 02:50:17;;;;;;;;;;;;;;;;;;5120097;27;20317;-90
2022/09/01 02:52:43;;;;;;;;;;;;;;;;;;5103305;27;19920;-90
2022/09/01 02:55:10;;;;;;;;;;;;;;;;;;5141159;27;19915;-89
2022/09/01 02:57:36;;;;;;;;;;;;;;;;;;5104191;27;19917;-90
2022/09/01 03:00:01;;;;;;;;;;;;;;;;;;5102746;27;19919;-90
2022/09/01 03:02:27;;;;;;;;;;;;;;;;;;5119427;27;19916;-90
2022/09/01 03:04:54;;;;;;;;;;;;;;;;;;5102497;27;19981;-90
2022/09/01 03:07:22;;;;;;;;;;;;;;;;;;5119489;27;20301;-91
2022/09/01 03:09:47;;;;;;;;;;;;;;;;;;5103262;27;19915;-90
2022/09/01 03:12:13;;;;;;;;;;;;;;;;;;5119127;27;19916;-90
2022/09/01 03:14:38;;;;;;;;;;;;;;;;;;5102312;27;19964;-90
2022/09/01 03:17:04;;;;;;;;;;;;;;;;;;5102511;27;19989;-91
2022/09/01 03:19:33;;;;;;;;;;;;;;;;;;5137352;27;19950;-91
2022/09/01 03:21:58;;;;;;;;;;;;;;;;;;5137394;27;19935;-91
2022/09/01 03:24:24;;;;;;;;;;;;;;;;;;5102198;27;20392;-90
2022/09/01 03:26:49;;;;;;;;;;;;;;;;;;5118938;27;19945;-88
2022/09/01 03:29:14;;;;;;;;;;;;;;;;;;5119206;27;19911;-90
2022/09/01 03:31:41;;;;;;;;;;;;;;;;;;5101891;27;19916;-89
2022/09/01 03:34:09;;;;;;;;;;;;;;;;;;5137164;27;19915;-90
2022/09/01 03:36:35;;;;;;;;;;;;;;;;;;5101618;28;19923;-89
2022/09/01 03:39:00;;;;;;;;;;;;;;;;;;5102318;27;20307;-89
2022/09/01 03:41:27;;;;;;;;;;;;;;;;;;5102059;27;19916;-90
2022/09/01 03:43:56;;;;;;;;;;;;;;;;;;5102108;27;19922;-90
2022/09/01 03:46:23;;;;;;;;;;;;;;;;;;5102323;27;19915;-91
2022/09/01 03:48:59;;;;;;;;;;;;;;;;;;5101997;27;19916;-91
2022/09/01 03:51:25;;;;;;;;;;;;;;;;;;5119599;27;19915;-90
2022/09/01 03:53:53;;;;;;;;;;;;;;;;;;5103046;27;19926;-90
2022/09/01 03:56:18;;;;;;;;;;;;;;;;;;5103021;27;19922;-88
2022/09/01 03:58:45;;;;;;;;;;;;;;;;;;5119120;27;20006;-90
2022/09/01 04:01:11;;;;;;;;;;;;;;;;;;5118358;27;20303;-90
2022/09/01 04:03:37;;;;;;;;;;;;;;;;;;5101439;27;19915;-89
2022/09/01 04:06:02;;;;;;;;;;;;;;;;;;5118721;27;19911;-89
2022/09/01 04:08:31;;;;;;;;;;;;;;;;;;5119006;27;20325;-90
2022/09/01 04:10:57;;;;;;;;;;;;;;;;;;5118879;27;20320;-89
2022/09/01 04:13:29;;;;;;;;;;;;;;;;;;5102129;27;19915;-90
2022/09/01 04:15:55;;;;;;;;;;;;;;;;;;5102698;27;19970;-90
2022/09/01 04:18:20;;;;;;;;;;;;;;;;;;5101782;27;20314;-89
2022/09/01 04:20:48;;;;;;;;;;;;;;;;;;5101067;27;20010;-89
2022/09/01 04:23:20;;;;;;;;;;;;;;;;;;5101502;27;19918;-89
2022/09/01 04:25:49;;;;;;;;;;;;;;;;;;5118315;27;19923;-91
2022/09/01 04:28:21;;;;;;;;;;;;;;;;;;5118103;27;19951;-89
2022/09/01 04:30:51;;;;;;;;;;;;;;;;;;5118880;27;19911;-89
2022/09/01 04:33:16;;;;;;;;;;;;;;;;;;5100541;27;19923;-90
2022/09/01 04:35:42;;;;;;;;;;;;;;;;;;5117677;27;20289;-91
2022/09/01 04:38:07;;;;;;;;;;;;;;;;;;5117451;27;19972;-91
2022/09/01 04:40:39;;;;;;;;;;;;;;;;;;5117477;27;19919;-90
2022/09/01 04:43:05;;;;;;;;;;;;;;;;;;5100530;27;19915;-90
2022/09/01 04:45:31;;;;;;;;;;;;;;;;;;5117667;27;19971;-90
2022/09/01 04:47:58;;;;;;;;;;;;;;;;;;5100071;27;19926;-91
2022/09/01 04:50:26;;;;;;;;;;;;;;;;;;5100265;27;20297;-90
2022/09/01 04:52:53;;;;;;;;;;;;;;;;;;5135878;27;19916;-90
2022/09/01 04:55:18;;;;;;;;;;;;;;;;;;5117553;27;20393;-90
2022/09/01 04:57:46;;;;;;;;;;;;;;;;;;5117770;27;19931;-90
2022/09/01 05:00:21;;;;;;;;;;;;;;;;;;5135589;27;19976;-91
2022/09/01 05:02:47;;;;;;;;;;;;;;;;;;5118157;27;19922;-90
2022/09/01 05:05:12;;;;;;;;;;;;;;;;;;5117374;27;19923;-90
2022/09/01 05:07:38;;;;;;;;;;;;;;;;;;5135554;27;19915;-90
2022/09/01 05:10:03;;;;;;;;;;;;;;;;;;5100234;27;19926;-90
2022/09/01 05:12:29;;;;;;;;;;;;;;;;;;5100559;28;19962;-90
2022/09/01 05:14:54;;;;;;;;;;;;;;;;;;5135606;27;19922;-89
2022/09/01 05:17:20;;;;;;;;;;;;;;;;;;5116715;28;19912;-90
2022/09/01 05:19:49;;;;;;;;;;;;;;;;;;5117176;28;20333;-90
2022/09/01 05:22:20;;;;;;;;;;;;;;;;;;5135475;28;19972;-90
2022/09/01 05:24:46;;;;;;;;;;;;;;;;;;5101095;28;19918;-90
2022/09/01 05:27:13;;;;;;;;;;;;;;;;;;5135467;28;19916;-91
2022/09/01 05:29:40;;;;;;;;;;;;;;;;;;5135250;28;19911;-91
2022/09/01 05:32:08;;;;;;;;;;;;;;;;;;5116799;28;20256;-90
2022/09/01 05:34:36;;;;;;;;;;;;;;;;;;5100837;28;19973;-90
2022/09/01 05:37:01;;;;;;;;;;;;;;;;;;5116975;28;19939;-90
2022/09/01 05:39:27;;;;;;;;;;;;;;;;;;5117883;28;20257;-88
2022/09/01 05:41:52;;;;;;;;;;;;;;;;;;5137975;28;19911;-87
2022/09/01 05:44:21;;;;;;;;;;;;;;;;;;5119959;28;19923;-88
2022/09/01 05:46:48;;;;;;;;;;;;;;;;;;5119565;28;19994;-88
2022/09/01 05:49:14;;;;;;;;;;;;;;;;;;5119877;28;19911;-88
2022/09/01 05:51:48;;;;;;;;;;;;;;;;;;5103248;28;19955;-79
2022/09/01 05:54:13;;;;;;;;;;;;;;;;;;5102161;28;19972;-81
2022/09/01 05:56:39;;;;;;;;;;;;;;;;;;5135113;28;19964;-80
2022/09/01 05:59:04;;;;;;;;;;;;;;;;;;5116612;28;20051;-83
2022/09/01 06:01:32;;;;;;;;;;;;;;;;;;5119420;27;19920;-79
2022/09/01 06:03:58;;;;;;;;;;;;;;;;;;5138628;27;20390;-80
2022/09/01 06:06:25;;;;;;;;;;;;;;;;;;5139128;27;19915;-79
2022/09/01 06:08:50;;;;;;;;;;;;;;;;;;5120539;27;19939;-80
2022/09/01 06:11:16;;;;;;;;;;;;;;;;;;5103315;27;20345;-80
2022/09/01 06:13:42;;;;;;;;;;;;;;;;;;5120627;27;19987;-80
2022/09/01 06:16:08;;;;;;;;;;;;;;;;;;5138368;27;20014;-81
2022/09/01 06:18:34;;;;;;;;;;;;;;;;;;5120264;27;20352;-78
2022/09/01 06:21:02;;;;;;;;;;;;;;;;;;5120392;27;19916;-78
2022/09/01 06:23:28;;;;;;;;;;;;;;;;;;5120426;27;19916;-79
2022/09/01 06:25:54;;;;;;;;;;;;;;;;;;5120064;27;20325;-79
2022/09/01 06:28:20;;;;;;;;;;;;;;;;;;5119816;27;20340;-78
2022/09/01 06:30:47;;;;;;;;;;;;;;;;;;5102698;27;19915;-77
2022/09/01 06:33:13;;;;;;;;;;;;;;;;;;5119990;27;19915;-77
2022/09/01 06:35:43;;;;;;;;;;;;;;;;;;5138249;27;19923;-79
2022/09/01 06:38:09;;;;;;;;;;;;;;;;;;5102974;27;19951;-77
2022/09/01 06:40:34;;;;;;;;;;;;;;;;;;5138547;27;19973;-77
2022/09/01 06:43:06;;;;;;;;;;;;;;;;;;5119703;27;20002;-79
2022/09/01 06:45:32;;;;;;;;;;;;;;;;;;5120065;27;19911;-79
2022/09/01 06:47:57;;;;;;;;;;;;;;;;;;5138097;27;19994;-80
2022/09/01 06:50:23;;;;;;;;;;;;;;;;;;5119515;27;19918;-79
2022/09/01 06:52:59;;;;;;;;;;;;;;;;;;5121113;27;19941;-80
2022/09/01 06:55:26;;;;;;;;;;;;;;;;;;5123552;27;19921;-79
2022/09/01 06:57:53;;;;;;;;;;;;;;;;;;5120619;27;19911;-81
2022/09/01 07:00:19;;;;;;;;;;;;;;;;;;5119858;27;19926;-79
2022/09/01 07:02:52;;;;;;;;;;;;;;;;;;5138154;27;19926;-79
2022/09/01 07:05:18;;;;;;;;;;;;;;;;;;5119823;27;19915;-79
2022/09/01 07:07:50;;;;;;;;;;;;;;;;;;5119692;27;19922;-81
2022/09/01 07:10:18;;;;;;;;;;;;;;;;;;5119281;27;19947;-79
2022/09/01 07:12:45;;;;;;;;;;;;;;;;;;5136481;27;19919;-80
2022/09/01 07:15:16;;;;;;;;;;;;;;;;;;5137578;27;19916;-79
2022/09/01 07:17:47;;;;;;;;;;;;;;;;;;5120290;27;19946;-81
2022/09/01 07:20:14;;;;;;;;;;;;;;;;;;5120191;27;19916;-79
2022/09/01 07:22:40;;;;;;;;;;;;;;;;;;5137196;27;20108;-81
2022/09/01 07:25:10;;;;;;;;;;;;;;;;;;5102607;27;19959;-83
2022/09/01 07:27:35;;;;;;;;;;;;;;;;;;5105614;27;19915;-80
2022/09/01 07:30:00;;;;;;;;;;;;;;;;;;5120938;27;19919;-77
2022/09/01 07:32:26;;;;;;;;;;;;;;;;;;5118894;27;19972;-81
2022/09/01 07:34:53;;;;;;;;;;;;;;;;;;5118818;27;19923;-79
2022/09/01 07:37:21;;;;;;;;;;;;;;;;;;5118941;27;19911;-78
2022/09/01 07:39:47;;;;;;;;;;;;;;;;;;5136923;27;19994;-78
2022/09/01 07:42:15;;;;;;;;;;;;;;;;;;5118390;27;20387;-78
2022/09/01 07:44:41;;;;;;;;;;;;;;;;;;5118861;27;19911;-79
2022/09/01 07:47:08;;;;;;;;;;;;;;;;;;5118440;27;19997;-79
2022/09/01 07:49:35;;;;;;;;;;;;;;;;;;5136765;27;19935;-79
2022/09/01 07:52:02;;;;;;;;;;;;;;;;;;5136554;27;19916;-79
2022/09/01 07:54:29;;;;;;;;;;;;;;;;;;5118577;27;20558;-80
2022/09/01 07:56:54;;;;;;;;;;;;;;;;;;5136091;27;20251;-78
2022/09/01 07:59:20;;;;;;;;;;;;;;;;;;5118442;27;20002;-80
2022/09/01 08:01:46;;;;;;;;;;;;;;;;;;5117968;27;19920;-78
2022/09/01 08:04:11;;;;;;;;;;;;;;;;;;5118547;27;20355;-78
2022/09/01 08:06:37;;;;;;;;;;;;;;;;;;5118385;27;19987;-79
2022/09/01 08:09:05;;;;;;;;;;;;;;;;;;5136438;27;20335;-79
2022/09/01 08:11:30;;;;;;;;;;;;;;;;;;5136200;27;19923;-81
2022/09/01 08:13:57;;;;;;;;;;;;;;;;;;5136505;27;19975;-79
2022/09/01 08:16:23;;;;;;;;;;;;;;;;;;5136606;27;19919;-79
2022/09/01 08:18:48;;;;;;;;;;;;;;;;;;5136198;27;20272;-77
2022/09/01 08:21:14;;;;;;;;;;;;;;;;;;5118034;27;20256;-77
2022/09/01 08:23:39;;;;;;;;;;;;;;;;;;5117846;27;19921;-77
2022/09/01 08:26:10;;;;;;;;;;;;;;;;;;5136217;27;19920;-76
2022/09/01 08:28:35;;;;;;;;;;;;;;;;;;5136180;27;19915;-78
2022/09/01 08:31:07;;;;;;;;;;;;;;;;;;5136182;27;20006;-78
2022/09/01 08:33:34;;;;;;;;;;;;;;;;;;5101018;27;19915;-77
2022/09/01 08:35:59;;;;;;;;;;;;;;;;;;5136003;27;20280;-77
2022/09/01 08:38:24;;;;;;;;;;;;;;;;;;5136127;27;19923;-75
2022/09/01 08:40:51;;;;;;;;;;;;;;;;;;5136048;27;19923;-77
2022/09/01 08:43:25;;;;;;;;;;;;;;;;;;5136244;27;19923;-77
2022/09/01 08:45:53;;;;;;;;;;;;;;;;;;5117837;27;20272;-76
2022/09/01 08:48:23;;;;;;;;;;;;;;;;;;5135634;27;19922;-77
2022/09/01 08:50:53;;;;;;;;;;;;;;;;;;5117203;27;19915;-78
2022/09/01 08:53:28;;;;;;;;;;;;;;;;;;5135857;27;20320;-81
2022/09/01 08:55:56;;;;;;;;;;;;;;;;;;5102347;27;19919;-78
2022/09/01 08:58:22;;;;;;;;;;;;;;;;;;5118646;27;19965;-77
2022/09/01 09:00:50;;;;;;;;;;;;;;;;;;5135342;27;19970;-77
2022/09/01 09:03:25;;;;;;;;;;;;;;;;;;5117013;27;19915;-77
2022/09/01 09:06:09;;;;;;;;;;;;;;;;;;5135501;27;19923;-78
2022/09/01 09:08:38;;;;;;;;;;;;;;;;;;5118608;27;19923;-78
2022/09/01 09:11:04;;;;;;;;;;;;;;;;;;5136081;27;19916;-79
2022/09/01 09:13:48;;;;;;;;;;;;;;;;;;5116926;27;19916;-79
2022/09/01 09:16:17;;;;;;;;;;;;;;;;;;5135420;27;19916;-77
2022/09/01 09:18:56;;;;;;;;;;;;;;;;;;5116951;28;20046;-77
2022/09/01 09:21:38;;;;;;;;;;;;;;;;;;5117683;28;19922;-77
2022/09/01 09:24:22;;;;;;;;;;;;;;;;;;5116538;28;19918;-78
2022/09/01 09:26:50;;;;;;;;;;;;;;;;;;5135268;28;19916;-78
2022/09/01 09:29:16;;;;;;;;;;;;;;;;;;5135663;28;20263;-79
2022/09/01 09:31:44;;;;;;;;;;;;;;;;;;5116992;28;19911;-78
2022/09/01 09:34:31;;;;;;;;;;;;;;;;;;5117502;27;19946;-79
2022/09/01 09:36:59;;;;;;;;;;;;;;;;;;5139147;27;19919;-79
2022/09/01 09:39:24;;;;;;;;;;;;;;;;;;5139689;27;19961;-76
2022/09/01 09:42:07;;;;;;;;;;;;;;;;;;5140293;27;20302;-78
2022/09/01 09:44:33;;;;;;;;;;;;;;;;;;5106648;27;20253;-78
2022/09/01 09:46:58;;;;;;;;;;;;;;;;;;5142866;27;19915;-78
2022/09/01 09:49:25;;;;;;;;;;;;;;;;;;5120883;27;20256;-78
2022/09/01 09:51:50;;;;;;;;;;;;;;;;;;5120742;27;19915;-78
2022/09/01 09:54:22;;;;;;;;;;;;;;;;;;5138918;27;19923;-78
2022/09/01 09:56:48;;;;;;;;;;;;;;;;;;5120835;27;20017;-79
2022/09/01 09:59:26;;;;;;;;;;;;;;;;;;5139102;27;20257;-77
2022/09/01 10:01:53;;;;;;;;;;;;;;;;;;5120746;27;19927;-77
2022/09/01 10:04:37;;;;;;;;;;;;;;;;;;5120619;27;19964;-78
2022/09/01 10:07:20;;;;;;;;;;;;;;;;;;5139189;27;20006;-78
2022/09/01 10:09:47;;;;;;;;;;;;;;;;;;5120581;27;19915;-78
2022/09/01 10:12:13;;;;;;;;;;;;;;;;;;5139140;27;19937;-77
2022/09/01 10:14:45;;;;;;;;;;;;;;;;;;5103665;27;20360;-78
2022/09/01 10:17:13;;;;;;;;;;;;;;;;;;5121632;27;19915;-78
2022/09/01 10:19:40;;;;;;;;;;;;;;;;;;5120783;27;19915;-78
2022/09/01 10:22:06;;;;;;;;;;;;;;;;;;5120340;27;20006;-78
2022/09/01 10:24:36;;;;;;;;;;;;;;;;;;5120407;27;19954;-78
2022/09/01 10:27:02;;;;;;;;;;;;;;;;;;5103098;27;19923;-79
2022/09/01 10:29:28;;;;;;;;;;;;;;;;;;5138813;27;19951;-77
2022/09/01 10:31:54;;;;;;;;;;;;;;;;;;5138557;27;20234;-78
2022/09/01 10:34:19;;;;;;;;;;;;;;;;;;5120396;27;20002;-78
2022/09/01 10:36:44;;;;;;;;;;;;;;;;;;5103369;27;20278;-78
2022/09/01 10:39:10;;;;;;;;;;;;;;;;;;5138397;27;19915;-78
2022/09/01 10:41:49;;;;;;;;;;;;;;;;;;5119876;27;19920;-78
2022/09/01 10:44:18;;;;;;;;;;;;;;;;;;5138154;27;19922;-78
2022/09/01 10:46:44;;;;;;;;;;;;;;;;;;5118411;27;19915;-78
2022/09/01 10:49:19;;;;;;;;;;;;;;;;;;5120165;27;19922;-79
2022/09/01 10:51:45;;;;;;;;;;;;;;;;;;5120470;27;19915;-78
2022/09/01 10:54:34;;;;;;;;;;;;;;;;;;5138154;27;20360;-78
2022/09/01 10:57:00;;;;;;;;;;;;;;;;;;5106290;27;19916;-78
2022/09/01 10:59:26;;;;;;;;;;;;;;;;;;5119689;27;19938;-77
2022/09/01 11:01:51;;;;;;;;;;;;;;;;;;5119726;27;19926;-78
2022/09/01 11:04:21;;;;;;;;;;;;;;;;;;5138130;27;19915;-78
2022/09/01 11:06:49;;;;;;;;;;;;;;;;;;5119404;27;19991;-78
2022/09/01 11:09:17;;;;;;;;;;;;;;;;;;5138046;27;19916;-78
2022/09/01 11:11:42;;;;;;;;;;;;;;;;;;5138188;27;19911;-78
2022/09/01 11:14:17;;;;;;;;;;;;;;;;;;5139112;27;19927;-78
2022/09/01 11:16:43;;;;;;;;;;;;;;;;;;5103842;27;19916;-79
2022/09/01 11:19:34;;;;;;;;;;;;;;;;;;5120196;27;19922;-77
2022/09/01 11:22:12;;;;;;;;;;;;;;;;;;5082814;27;19922;-77
2022/09/01 11:24:37;;;;;;;;;;;;;;;;;;5160262;27;19915;-79
2022/09/01 11:27:09;;;;;;;;;;;;;;;;;;5160416;27;19942;-78
2022/09/01 11:29:50;;;;;;;;;;;;;;;;;;5142829;27;19903;-75
2022/09/01 11:32:15;;;;;;;;;;;;;;;;;;5159219;27;19904;-76
2022/09/01 11:34:41;;;;;;;;;;;;;;;;;;5148084;27;20268;-78
2022/09/01 11:37:11;;;;;;;;;;;;;;;;;;5119462;27;20006;-76
2022/09/01 11:39:40;;;;;;;;;;;;;;;;;;5119121;27;19916;-77
2022/09/01 11:42:20;;;;;;;;;;;;;;;;;;5137448;27;19947;-77
2022/09/01 11:44:50;;;;;;;;;;;;;;;;;;5101583;27;19912;-77
2022/09/01 11:47:16;;;;;;;;;;;;;;;;;;5118898;27;19916;-77
2022/09/01 11:50:08;;;;;;;;;;;;;;;;;;5118397;27;20249;-77
2022/09/01 11:52:34;;;;;;;;;;;;;;;;;;5097132;27;19927;-75
2022/09/01 11:55:00;;;;;;;;;;;;;;;;;;5118545;27;19923;-75
2022/09/01 11:57:35;;;;;;;;;;;;;;;;;;5118492;27;20288;-77
2022/09/01 12:00:03;;;;;;;;;;;;;;;;;;5118226;27;20413;-78
2022/09/01 12:02:32;;;;;;;;;;;;;;;;;;5118435;27;19938;-78
2022/09/01 12:04:58;;;;;;;;;;;;;;;;;;5101689;27;19912;-77
2022/09/01 12:07:33;;;;;;;;;;;;;;;;;;5118259;27;19964;-78
2022/09/01 12:09:58;;;;;;;;;;;;;;;;;;5136730;27;20005;-78
2022/09/01 12:12:29;;;;;;;;;;;;;;;;;;5136457;27;19998;-77
2022/09/01 12:15:02;;;;;;;;;;;;;;;;;;5118275;27;19916;-78
2022/09/01 12:17:27;;;;;;;;;;;;;;;;;;5100596;27;20268;-78
2022/09/01 12:19:53;;;;;;;;;;;;;;;;;;5136304;27;19916;-78
2022/09/01 12:22:20;;;;;;;;;;;;;;;;;;5118402;27;19915;-79
2022/09/01 12:24:46;;;;;;;;;;;;;;;;;;5118105;27;19920;-78
2022/09/01 12:27:11;;;;;;;;;;;;;;;;;;5117761;27;19916;-78
2022/09/01 12:29:37;;;;;;;;;;;;;;;;;;5117617;27;19938;-78
2022/09/01 12:32:02;;;;;;;;;;;;;;;;;;5136211;27;20277;-78
2022/09/01 12:34:38;;;;;;;;;;;;;;;;;;5117841;27;20317;-78
2022/09/01 12:37:06;;;;;;;;;;;;;;;;;;5118079;27;19916;-77
2022/09/01 12:39:33;;;;;;;;;;;;;;;;;;5135921;27;19915;-78
2022/09/01 12:42:01;;;;;;;;;;;;;;;;;;5117492;27;19916;-78
2022/09/01 12:44:30;;;;;;;;;;;;;;;;;;5135953;27;19915;-77
2022/09/01 12:46:56;;;;;;;;;;;;;;;;;;5117391;27;20325;-78
2022/09/01 12:49:23;;;;;;;;;;;;;;;;;;5117324;27;19922;-78
2022/09/01 12:51:49;;;;;;;;;;;;;;;;;;5100581;28;19922;-78
2022/09/01 12:54:15;;;;;;;;;;;;;;;;;;5117273;27;19916;-78
2022/09/01 12:56:43;;;;;;;;;;;;;;;;;;5117178;27;19916;-78
2022/09/01 12:59:12;;;;;;;;;;;;;;;;;;5116963;27;19965;-78
2022/09/01 13:01:38;;;;;;;;;;;;;;;;;;5099527;27;19984;-84
2022/09/01 13:04:09;;;;;;;;;;;;;;;;;;5100390;27;20272;-84
2022/09/01 13:06:34;;;;;;;;;;;;;;;;;;5135485;27;20343;-84
2022/09/01 13:08:59;;;;;;;;;;;;;;;;;;5116881;27;19916;-84
2022/09/01 13:11:25;;;;;;;;;;;;;;;;;;5116321;27;20023;-84
2022/09/01 13:13:52;;;;;;;;;;;;;;;;;;5134965;27;20280;-83
2022/09/01 13:16:17;;;;;;;;;;;;;;;;;;5117034;28;20006;-84
2022/09/01 13:18:43;;;;;;;;;;;;;;;;;;5135853;27;19954;-84
2022/09/01 13:21:08;;;;;;;;;;;;;;;;;;5117363;28;20314;-84
2022/09/01 13:23:33;;;;;;;;;;;;;;;;;;5135420;27;19916;-83
2022/09/01 13:25:59;;;;;;;;;;;;;;;;;;5100121;28;19937;-83
2022/09/01 13:28:24;;;;;;;;;;;;;;;;;;5135423;28;20018;-85
2022/09/01 13:30:59;;;;;;;;;;;;;;;;;;5135150;28;19915;-84
2022/09/01 13:33:25;;;;;;;;;;;;;;;;;;5116901;28;19944;-83
2022/09/01 13:35:52;;;;;;;;;;;;;;;;;;5100179;28;19915;-84
2022/09/01 13:38:17;;;;;;;;;;;;;;;;;;5117075;28;19923;-83
2022/09/01 13:40:45;;;;;;;;;;;;;;;;;;5116929;28;19916;-84
2022/09/01 13:43:10;;;;;;;;;;;;;;;;;;5101636;28;19923;-83
2022/09/01 13:45:39;;;;;;;;;;;;;;;;;;5105021;28;19916;-83
2022/09/01 13:48:05;;;;;;;;;;;;;;;;;;5117285;28;19915;-84
2022/09/01 13:50:30;;;;;;;;;;;;;;;;;;5116818;28;19922;-84
2022/09/01 13:52:56;;;;;;;;;;;;;;;;;;5117056;28;19919;-84
2022/09/01 13:55:22;;;;;;;;;;;;;;;;;;5116952;28;19916;-84
2022/09/01 13:57:47;;;;;;;;;;;;;;;;;;5116745;28;19915;-79
2022/09/01 14:00:15;;;;;;;;;;;;;;;;;;5134654;28;19920;-78
2022/09/01 14:02:41;;;;;;;;;;;;;;;;;;5135161;28;19923;-84
2022/09/01 14:05:07;;;;;;;;;;;;;;;;;;5100091;28;20012;-84
2022/09/01 14:07:32;;;;;;;;;;;;;;;;;;5116944;28;19919;-84
2022/09/01 14:09:58;;;;;;;;;;;;;;;;;;5116929;28;19946;-85
2022/09/01 14:12:23;;;;;;;;;;;;;;;;;;5102255;28;20296;-83
2022/09/01 14:14:49;;;;;;;;;;;;;;;;;;5118983;28;19924;-83
2022/09/01 14:17:14;;;;;;;;;;;;;;;;;;5122618;28;19934;-84
2022/09/01 14:19:40;;;;;;;;;;;;;;;;;;5099978;28;20002;-85
2022/09/01 14:22:07;;;;;;;;;;;;;;;;;;5137470;27;19948;-83
2022/09/01 14:24:35;;;;;;;;;;;;;;;;;;5103962;27;19915;-83
2022/09/01 14:27:01;;;;;;;;;;;;;;;;;;5120756;27;19951;-84
2022/09/01 14:29:26;;;;;;;;;;;;;;;;;;5120408;27;20375;-84
2022/09/01 14:31:52;;;;;;;;;;;;;;;;;;5120273;27;19916;-84
2022/09/01 14:34:17;;;;;;;;;;;;;;;;;;5120316;27;19988;-86
2022/09/01 14:36:43;;;;;;;;;;;;;;;;;;5103445;27;19922;-83
2022/09/01 14:39:09;;;;;;;;;;;;;;;;;;5120578;27;19920;-83
2022/09/01 14:41:34;;;;;;;;;;;;;;;;;;5138500;27;20268;-84
2022/09/01 14:44:03;;;;;;;;;;;;;;;;;;5103137;27;19916;-84
2022/09/01 14:46:29;;;;;;;;;;;;;;;;;;5138797;27;19973;-86
2022/09/01 14:48:54;;;;;;;;;;;;;;;;;;5103596;27;19966;-86
2022/09/01 14:51:21;;;;;;;;;;;;;;;;;;5120037;27;19919;-85
2022/09/01 14:53:47;;;;;;;;;;;;;;;;;;5119879;27;19916;-84
2022/09/01 14:56:13;;;;;;;;;;;;;;;;;;5138210;27;19947;-84
2022/09/01 14:58:41;;;;;;;;;;;;;;;;;;5102544;27;19915;-83
2022/09/01 15:01:07;;;;;;;;;;;;;;;;;;5138039;27;19919;-84
2022/09/01 15:03:33;;;;;;;;;;;;;;;;;;5102828;27;20334;-84
2022/09/01 15:05:58;;;;;;;;;;;;;;;;;;5119855;27;19923;-84
2022/09/01 15:08:24;;;;;;;;;;;;;;;;;;5119926;27;20278;-84
2022/09/01 15:10:49;;;;;;;;;;;;;;;;;;5119548;27;19916;-83
2022/09/01 15:13:15;;;;;;;;;;;;;;;;;;5102332;27;20287;-83
2022/09/01 15:15:40;;;;;;;;;;;;;;;;;;5137876;27;20005;-84
2022/09/01 15:18:05;;;;;;;;;;;;;;;;;;5137749;27;19915;-84
2022/09/01 15:20:46;;;;;;;;;;;;;;;;;;5137778;27;19965;-84
2022/09/01 15:23:21;;;;;;;;;;;;;;;;;;5121572;27;19915;-83
2022/09/01 15:25:46;;;;;;;;;;;;;;;;;;5119067;27;19915;-84
2022/09/01 15:28:11;;;;;;;;;;;;;;;;;;5119251;27;19915;-84
2022/09/01 15:30:38;;;;;;;;;;;;;;;;;;5137561;27;19915;-84
2022/09/01 15:33:04;;;;;;;;;;;;;;;;;;5136599;27;20218;-84
2022/09/01 15:35:29;;;;;;;;;;;;;;;;;;5119101;27;19916;-84
2022/09/01 15:37:54;;;;;;;;;;;;;;;;;;5102481;27;19921;-84
2022/09/01 15:40:21;;;;;;;;;;;;;;;;;;5118953;27;19915;-84
2022/09/01 15:42:46;;;;;;;;;;;;;;;;;;5118797;27;20293;-84
2022/09/01 15:45:13;;;;;;;;;;;;;;;;;;5118977;27;19922;-84
2022/09/01 15:47:39;;;;;;;;;;;;;;;;;;5137237;27;19923;-84
2022/09/01 15:50:05;;;;;;;;;;;;;;;;;;5119168;27;20291;-84
2022/09/01 15:52:31;;;;;;;;;;;;;;;;;;5137254;27;19973;-86
2022/09/01 15:54:57;;;;;;;;;;;;;;;;;;5101768;27;19920;-84
2022/09/01 15:57:22;;;;;;;;;;;;;;;;;;5101858;27;19918;-83
2022/09/01 15:59:47;;;;;;;;;;;;;;;;;;5118384;27;20328;-84
2022/09/01 16:02:16;;;;;;;;;;;;;;;;;;5136936;27;19958;-83
2022/09/01 16:04:41;;;;;;;;;;;;;;;;;;5137137;27;19915;-83
2022/09/01 16:07:07;;;;;;;;;;;;;;;;;;5118450;27;20002;-83
2022/09/01 16:09:32;;;;;;;;;;;;;;;;;;5136877;27;19984;-83
2022/09/01 16:11:57;;;;;;;;;;;;;;;;;;5101638;27;19915;-83
2022/09/01 16:14:23;;;;;;;;;;;;;;;;;;5136674;27;19916;-82
2022/09/01 16:17:04;;;;;;;;;;;;;;;;;;5118584;27;20214;-86
2022/09/01 16:19:39;;;;;;;;;;;;;;;;;;5118803;27;19915;-86
2022/09/01 16:22:10;;;;;;;;;;;;;;;;;;5136517;27;20006;-86
2022/09/01 16:24:40;;;;;;;;;;;;;;;;;;5136436;27;20012;-83
2022/09/01 16:27:06;;;;;;;;;;;;;;;;;;5136640;27;19915;-84
2022/09/01 16:29:33;;;;;;;;;;;;;;;;;;5136422;27;19922;-84
2022/09/01 16:31:59;;;;;;;;;;;;;;;;;;5117958;27;19915;-83
2022/09/01 16:34:24;;;;;;;;;;;;;;;;;;5136309;27;19916;-84
2022/09/01 16:36:51;;;;;;;;;;;;;;;;;;5117899;27;19922;-84
2022/09/01 16:39:19;;;;;;;;;;;;;;;;;;5117644;27;20261;-84
2022/09/01 16:41:47;;;;;;;;;;;;;;;;;;5136170;27;19915;-83
2022/09/01 16:44:31;;;;;;;;;;;;;;;;;;5136058;27;20024;-84
2022/09/01 16:47:31;;;;;;;;;;;;;;;;;;5135992;27;19919;-83
2022/09/01 16:50:20;;;;;;;;;;;;;;;;;;5064564;27;19926;-84
2022/09/01 16:52:45;;;;;;;;;;;;;;;;;;5087838;27;20006;-84